createdAt,value
2018-06-09T00:00:53.712Z,41.18
2018-06-09T00:03:27.588Z,40.12
2018-06-09T00:05:58.855Z,47.67
2018-06-09T00:08:31.411Z,41.95
2018-06-09T00:11:04.088Z,48.80
2018-06-09T00:13:50.400Z,45.67
2018-06-09T00:16:19.002Z,45.25
2018-06-09T00:18:47.528Z,47.43
2018-06-09T00:21:16.183Z,45.00
2018-06-09T00:23:45.735Z,41.55
2018-06-09T00:26:15.454Z,47.62
2018-06-09T00:28:44.045Z,51.88
2018-06-09T00:31:13.086Z,46.20
2018-06-09T00:33:42.280Z,46.68
2018-06-09T00:36:10.926Z,49.25
2018-06-09T00:41:35.388Z,47.43
2018-06-09T00:44:03.945Z,51.02
2018-06-09T00:46:32.461Z,51.83
2018-06-09T00:49:01.147Z,49.88
2018-06-09T00:51:29.656Z,52.27
2018-06-09T00:53:59.273Z,52.50
2018-06-09T00:56:39.254Z,57.95
2018-06-09T00:59:07.804Z,51.15
2018-06-09T01:01:36.313Z,52.70
2018-06-09T01:04:04.886Z,50.63
2018-06-09T01:06:33.491Z,51.20
2018-06-09T01:09:02.806Z,51.55
2018-06-09T01:11:31.322Z,53.90
2018-06-09T01:14:00.091Z,51.55
2018-06-09T01:16:28.568Z,51.28
2018-06-09T01:18:57.063Z,50.35
2018-06-09T01:21:25.584Z,52.23
2018-06-09T01:23:54.113Z,51.35
2018-06-09T01:26:22.662Z,51.42
2018-06-09T01:28:51.148Z,50.23
2018-06-09T01:31:19.377Z,52.93
2018-06-09T01:33:48.077Z,52.30
2018-06-09T01:36:17.066Z,50.48
2018-06-09T01:38:46.039Z,51.00
2018-06-09T01:41:14.638Z,55.70
2018-06-09T01:43:43.869Z,51.28
2018-06-09T01:46:12.802Z,51.48
2018-06-09T01:48:41.900Z,51.65
2018-06-09T01:51:10.738Z,55.65
2018-06-09T01:53:40.442Z,50.40
2018-06-09T01:56:09.028Z,45.85
2018-06-09T01:58:39.034Z,57.00
2018-06-09T02:01:07.535Z,50.60
2018-06-09T02:03:36.012Z,50.83
2018-06-09T02:06:04.617Z,48.00
2018-06-09T02:08:36.012Z,51.48
2018-06-09T02:11:11.284Z,49.33
2018-06-09T02:13:41.048Z,54.08
2018-06-09T02:16:09.643Z,50.25
2018-06-09T02:18:38.396Z,45.12
2018-06-09T02:21:07.017Z,47.25
2018-06-09T02:23:35.532Z,47.05
2018-06-09T02:26:04.105Z,47.45
2018-06-09T02:28:32.620Z,46.00
2018-06-09T02:31:01.209Z,45.05
2018-06-09T02:33:29.733Z,47.93
2018-06-09T02:36:07.760Z,48.90
2018-06-09T02:38:44.516Z,47.83
2018-06-09T02:41:14.704Z,50.05
2018-06-09T02:43:45.297Z,52.38
2018-06-09T02:46:14.674Z,49.33
2018-06-09T02:48:45.699Z,48.10
2018-06-09T02:51:17.525Z,50.58
2018-06-09T02:53:49.059Z,54.15
2018-06-09T02:56:20.101Z,48.85
2018-06-09T02:58:51.586Z,50.28
2018-06-09T03:01:21.882Z,52.62
2018-06-09T03:03:52.031Z,57.20
2018-06-09T03:06:20.682Z,52.60
2018-06-09T03:08:52.670Z,52.65
2018-06-09T03:11:21.838Z,52.98
2018-06-09T03:13:50.516Z,56.40
2018-06-09T03:16:20.064Z,57.80
2018-06-09T03:18:49.970Z,52.35
2018-06-09T03:21:19.602Z,60.35
2018-06-09T03:23:53.400Z,61.92
2018-06-09T03:26:37.307Z,62.55
2018-06-09T03:29:07.195Z,55.28
2018-06-09T03:31:36.893Z,57.38
2018-06-09T03:34:12.407Z,53.17
2018-06-09T03:36:46.823Z,54.73
2018-06-09T03:39:18.244Z,55.55
2018-06-09T03:41:48.885Z,50.75
2018-06-09T03:44:20.914Z,57.83
2018-06-09T03:46:52.110Z,50.65
2018-06-09T03:49:23.864Z,56.63
2018-06-09T03:51:53.971Z,53.15
2018-06-09T03:54:23.330Z,51.40
2018-06-09T03:56:52.148Z,52.90
2018-06-09T03:59:20.598Z,54.18
2018-06-09T04:01:49.755Z,55.90
2018-06-09T04:04:19.466Z,58.48
2018-06-09T04:06:49.507Z,54.35
2018-06-09T04:09:18.336Z,51.53
2018-06-09T04:11:48.636Z,50.12
2018-06-09T04:14:19.359Z,52.17
2018-06-09T04:19:44.733Z,49.70
2018-06-09T04:22:16.241Z,54.50
2018-06-09T04:24:45.301Z,49.67
2018-06-09T04:27:13.949Z,48.40
2018-06-09T04:29:54.136Z,49.98
2018-06-09T04:32:24.711Z,56.37
2018-06-09T04:34:53.783Z,48.38
2018-06-09T04:37:23.258Z,51.13
2018-06-09T04:39:54.256Z,49.50
2018-06-09T04:42:35.721Z,47.93
2018-06-09T04:45:11.163Z,47.48
2018-06-09T04:47:40.986Z,48.78
2018-06-09T04:50:13.217Z,45.95
2018-06-09T04:52:46.034Z,46.05
2018-06-09T04:55:16.615Z,50.15
2018-06-09T04:57:47.282Z,51.60
2018-06-09T05:00:17.160Z,60.40
2018-06-09T05:02:45.827Z,58.33
2018-06-09T05:05:23.358Z,51.90
2018-06-09T05:07:53.093Z,51.50
2018-06-09T05:10:23.856Z,54.85
2018-06-09T05:12:54.254Z,60.83
2018-06-09T05:15:23.353Z,63.60
2018-06-09T05:17:53.506Z,57.03
2018-06-09T05:20:25.830Z,60.48
2018-06-09T05:22:55.520Z,60.58
2018-06-09T05:25:24.098Z,64.45
2018-06-09T05:27:53.581Z,66.20
2018-06-09T05:30:22.769Z,63.75
2018-06-09T05:32:55.842Z,61.90
2018-06-09T05:35:26.893Z,60.67
2018-06-09T05:37:57.826Z,61.48
2018-06-09T05:40:26.794Z,55.75
2018-06-09T05:42:55.340Z,58.33
2018-06-09T05:45:25.870Z,51.70
2018-06-09T05:47:55.636Z,50.50
2018-06-09T05:50:25.744Z,51.40
2018-06-09T05:52:54.285Z,55.98
2018-06-09T05:55:24.379Z,54.95
2018-06-09T05:57:54.115Z,51.33
2018-06-09T06:00:22.672Z,52.65
2018-06-09T06:02:53.697Z,52.60
2018-06-09T06:05:24.416Z,48.45
2018-06-09T06:07:52.901Z,49.85
2018-06-09T06:10:23.288Z,49.27
2018-06-09T06:12:53.767Z,50.40
2018-06-09T06:15:23.213Z,49.73
2018-06-09T06:17:51.690Z,47.13
2018-06-09T06:20:20.926Z,51.85
2018-06-09T06:22:49.604Z,45.33
2018-06-09T06:25:20.102Z,49.10
2018-06-09T06:27:50.297Z,47.83
2018-06-09T06:30:18.861Z,44.38
2018-06-09T06:32:49.705Z,43.02
2018-06-09T06:35:18.270Z,44.27
2018-06-09T06:37:47.587Z,42.10
2018-06-09T06:40:17.642Z,43.25
2018-06-09T06:42:51.622Z,41.28
2018-06-09T06:45:20.286Z,40.30
2018-06-09T06:47:52.213Z,43.63
2018-06-09T06:50:21.947Z,39.40
2018-06-09T06:52:53.277Z,42.35
2018-06-09T06:55:24.869Z,42.53
2018-06-09T06:57:54.965Z,40.43
2018-06-09T07:00:27.532Z,38.58
2018-06-09T07:02:56.661Z,39.30
2018-06-09T07:05:25.266Z,38.60
2018-06-09T07:07:53.763Z,35.58
2018-06-09T07:10:22.320Z,36.15
2018-06-09T07:12:50.851Z,33.98
2018-06-09T07:15:19.371Z,35.90
2018-06-09T07:17:47.894Z,34.63
2018-06-09T07:20:16.933Z,35.10
2018-06-09T07:22:45.946Z,38.55
2018-06-09T07:25:14.521Z,41.58
2018-06-09T07:27:47.464Z,38.02
2018-06-09T07:30:16.647Z,39.78
2018-06-09T07:32:45.834Z,36.95
2018-06-09T07:35:16.815Z,40.17
2018-06-09T07:37:46.404Z,39.53
2018-06-09T07:40:15.785Z,36.95
2018-06-09T07:42:46.669Z,40.05
2018-06-09T07:45:16.771Z,35.92
2018-06-09T07:47:45.654Z,34.27
2018-06-09T07:50:16.639Z,33.65
2018-06-09T07:52:51.486Z,32.85
2018-06-09T07:55:23.439Z,29.52
2018-06-09T07:57:52.238Z,32.45
2018-06-09T08:00:21.484Z,29.07
2018-06-09T08:02:51.692Z,28.25
2018-06-09T08:05:20.329Z,26.33
2018-06-09T08:07:48.952Z,24.80
2018-06-09T08:10:19.200Z,25.30
2018-06-09T08:12:48.549Z,25.45
2018-06-09T08:15:17.932Z,24.23
2018-06-09T08:17:58.798Z,27.87
2018-06-09T08:20:27.735Z,25.65
2018-06-09T08:22:58.898Z,25.50
2018-06-09T08:25:38.190Z,24.57
2018-06-09T08:28:10.380Z,21.85
2018-06-09T08:30:41.327Z,23.83
2018-06-09T08:33:12.016Z,23.47
2018-06-09T08:35:43.319Z,21.57
2018-06-09T08:38:14.925Z,25.30
2018-06-09T08:40:51.452Z,24.05
2018-06-09T08:43:26.342Z,20.17
2018-06-09T08:45:55.458Z,19.27
2018-06-09T08:48:27.462Z,22.27
2018-06-09T08:50:57.940Z,20.25
2018-06-09T08:53:26.758Z,20.90
2018-06-09T08:55:57.229Z,21.48
2018-06-09T08:58:26.633Z,20.97
2018-06-09T09:00:55.655Z,19.42
2018-06-09T09:03:24.217Z,20.92
2018-06-09T09:05:53.564Z,21.10
2018-06-09T09:08:24.294Z,19.67
2018-06-09T09:10:58.415Z,19.87
2018-06-09T09:13:26.720Z,19.23
2018-06-09T09:15:55.947Z,22.80
2018-06-09T09:18:25.321Z,21.93
2018-06-09T09:20:55.425Z,19.70
2018-06-09T09:23:24.104Z,18.07
2018-06-09T09:25:53.631Z,19.62
2018-06-09T09:28:27.818Z,21.20
2018-06-09T09:31:04.287Z,18.77
2018-06-09T09:33:35.888Z,18.57
2018-06-09T09:36:06.972Z,17.40
2018-06-09T09:38:39.969Z,17.02
2018-06-09T09:41:10.190Z,17.60
2018-06-09T09:51:39.622Z,17.37
2018-06-09T09:54:11.814Z,15.43
2018-06-09T09:56:49.815Z,14.78
2018-06-09T09:59:26.297Z,14.73
2018-06-09T10:01:56.729Z,15.63
2018-06-09T10:04:25.413Z,14.47
2018-06-09T10:06:54.177Z,13.70
2018-06-09T10:09:24.164Z,13.00
2018-06-09T10:11:53.771Z,13.05
2018-06-09T10:14:26.065Z,12.75
2018-06-09T10:17:40.756Z,12.82
2018-06-09T10:20:12.464Z,12.10
2018-06-09T10:22:52.329Z,12.63
2018-06-09T10:25:21.587Z,11.22
2018-06-09T10:27:51.005Z,11.95
2018-06-09T10:30:20.549Z,12.25
2018-06-09T10:32:50.309Z,12.55
2018-06-09T10:35:20.203Z,12.37
2018-06-09T10:37:48.738Z,11.95
2018-06-09T10:40:19.905Z,12.13
2018-06-09T10:42:48.536Z,13.05
2018-06-09T10:45:17.939Z,12.10
2018-06-09T10:47:49.284Z,13.15
2018-06-09T10:52:55.615Z,12.43
2018-06-09T10:55:24.785Z,13.28
2018-06-09T10:57:53.868Z,13.45
2018-06-09T11:00:23.108Z,14.58
2018-06-09T11:02:53.506Z,13.75
2018-06-09T11:05:23.086Z,15.48
2018-06-09T11:07:54.516Z,13.65
2018-06-09T11:10:24.008Z,14.07
2018-06-09T11:12:56.056Z,13.22
2018-06-09T11:15:26.498Z,12.40
2018-06-09T11:17:57.939Z,11.70
2018-06-09T11:20:28.739Z,11.55
2018-06-09T11:22:58.132Z,11.20
2018-06-09T11:25:26.699Z,11.55
2018-06-09T11:28:01.831Z,10.43
2018-06-09T11:30:33.553Z,13.28
2018-06-09T11:33:07.566Z,12.53
2018-06-09T11:35:45.876Z,11.70
2018-06-09T11:38:16.051Z,12.63
2018-06-09T11:45:45.415Z,13.65
2018-06-09T11:48:14.081Z,13.72
2018-06-09T11:50:47.096Z,14.65
2018-06-09T11:53:21.235Z,14.90
2018-06-09T11:55:57.082Z,12.58
2018-06-09T11:58:25.633Z,13.40
2018-06-09T12:00:57.729Z,14.28
2018-06-09T12:03:26.407Z,13.38
2018-06-09T12:05:56.432Z,13.45
2018-06-09T12:08:41.166Z,14.35
2018-06-09T12:11:12.444Z,14.87
2018-06-09T12:13:45.129Z,14.13
2018-06-09T12:16:13.779Z,13.80
2018-06-09T12:18:42.516Z,11.73
2018-06-09T12:21:14.037Z,12.80
2018-06-09T12:23:42.596Z,13.13
2018-06-09T12:26:14.809Z,13.08
2018-06-09T12:28:50.677Z,13.75
2018-06-09T12:31:20.694Z,13.85
2018-06-09T12:33:50.861Z,12.60
2018-06-09T12:36:20.676Z,14.50
2018-06-09T12:38:50.282Z,13.22
2018-06-09T12:41:20.510Z,13.03
2018-06-09T12:43:51.658Z,12.93
2018-06-09T12:46:28.421Z,13.25
2018-06-09T12:48:57.675Z,13.88
2018-06-09T12:51:27.511Z,12.50
2018-06-09T12:53:57.818Z,12.60
2018-06-09T12:56:26.287Z,12.50
2018-06-09T12:58:55.627Z,12.25
2018-06-09T13:01:26.201Z,11.60
2018-06-09T13:03:55.216Z,11.63
2018-06-09T13:06:25.548Z,10.60
2018-06-09T13:08:55.318Z,10.70
2018-06-09T13:11:28.412Z,12.30
2018-06-09T13:13:57.008Z,13.43
2018-06-09T13:16:25.173Z,15.83
2018-06-09T13:18:53.800Z,15.13
2018-06-09T13:21:24.315Z,16.90
2018-06-09T13:23:55.222Z,15.58
2018-06-09T13:26:39.583Z,15.05
2018-06-09T13:29:08.196Z,13.62
2018-06-09T13:31:39.624Z,14.45
2018-06-09T13:34:09.580Z,14.13
2018-06-09T13:36:40.641Z,12.88
2018-06-09T13:39:10.162Z,12.80
2018-06-09T13:41:39.166Z,13.88
2018-06-09T13:44:09.041Z,13.30
2018-06-09T13:46:38.268Z,14.40
2018-06-09T13:49:08.260Z,13.75
2018-06-09T13:51:47.253Z,14.63
2018-06-09T13:54:36.613Z,12.28
2018-06-09T13:57:12.736Z,12.88
2018-06-09T13:59:42.852Z,13.00
2018-06-09T14:02:13.809Z,13.30
2018-06-09T14:04:47.100Z,13.22
2018-06-09T14:07:19.332Z,13.40
2018-06-09T14:09:49.072Z,14.00
2018-06-09T14:12:19.768Z,13.98
2018-06-09T14:14:48.525Z,12.98
2018-06-09T14:17:17.179Z,13.62
2018-06-09T14:19:46.915Z,13.08
2018-06-09T14:22:17.742Z,13.53
2018-06-09T14:24:57.403Z,12.10
2018-06-09T14:27:28.203Z,12.10
2018-06-09T14:29:57.744Z,13.70
2018-06-09T14:32:26.302Z,12.55
2018-06-09T14:34:54.923Z,13.43
2018-06-09T14:37:23.762Z,13.62
2018-06-09T14:39:53.127Z,13.43
2018-06-09T14:42:22.054Z,12.58
2018-06-09T14:44:56.957Z,14.18
2018-06-09T14:47:25.925Z,12.80
2018-06-09T14:49:57.808Z,13.78
2018-06-09T14:52:30.547Z,13.50
2018-06-09T14:55:06.785Z,12.70
2018-06-09T14:57:41.205Z,13.38
2018-06-09T15:00:28.831Z,13.98
2018-06-09T15:02:58.537Z,13.25
2018-06-09T15:05:27.040Z,14.38
2018-06-09T15:07:55.985Z,13.70
2018-06-09T15:10:24.604Z,14.25
2018-06-09T15:12:53.917Z,14.28
2018-06-09T15:15:22.999Z,13.93
2018-06-09T15:17:51.570Z,12.90
2018-06-09T15:20:20.388Z,13.60
2018-06-09T15:22:49.602Z,14.40
2018-06-09T15:25:18.944Z,14.35
2018-06-09T15:27:47.592Z,14.15
2018-06-09T15:30:17.071Z,14.43
2018-06-09T15:32:46.871Z,14.45
2018-06-09T15:35:15.487Z,13.83
2018-06-09T15:37:49.085Z,14.60
2018-06-09T15:40:18.270Z,15.18
2018-06-09T15:42:47.777Z,15.45
2018-06-09T15:45:19.221Z,15.38
2018-06-09T15:50:48.573Z,15.00
2018-06-09T15:53:17.236Z,15.20
2018-06-09T15:55:46.615Z,14.18
2018-06-09T15:58:15.555Z,14.45
2018-06-09T16:00:44.135Z,14.60
2018-06-09T16:03:12.840Z,14.65
2018-06-09T16:05:41.430Z,14.53
2018-06-09T16:08:10.895Z,15.78
2018-06-09T16:10:40.920Z,16.05
2018-06-09T16:13:09.712Z,16.07
2018-06-09T16:15:39.790Z,17.02
2018-06-09T16:18:09.234Z,16.77
2018-06-09T16:20:38.407Z,16.07
2018-06-09T16:23:08.647Z,16.10
2018-06-09T16:25:50.243Z,15.48
2018-06-09T16:28:18.993Z,16.48
2018-06-09T16:30:48.652Z,16.02
2018-06-09T16:33:17.544Z,16.02
2018-06-09T16:35:46.694Z,18.65
2018-06-09T16:38:16.566Z,15.65
2018-06-09T16:40:54.467Z,15.93
2018-06-09T16:43:25.115Z,14.38
2018-06-09T16:45:53.759Z,16.40
2018-06-09T16:48:22.413Z,16.00
2018-06-09T16:50:51.239Z,14.83
2018-06-09T16:53:22.034Z,15.40
2018-06-09T16:55:50.788Z,14.85
2018-06-09T16:58:19.236Z,15.40
2018-06-09T17:00:48.383Z,16.02
2018-06-09T17:03:19.200Z,15.53
2018-06-09T17:05:47.860Z,14.18
2018-06-09T17:08:16.338Z,14.78
2018-06-09T17:10:45.621Z,14.25
2018-06-09T17:13:14.153Z,14.70
2018-06-09T17:15:43.973Z,15.13
2018-06-09T17:18:14.664Z,14.23
2018-06-09T17:20:43.213Z,16.15
2018-06-09T17:23:11.998Z,15.40
2018-06-09T17:25:42.189Z,15.25
2018-06-09T17:28:13.609Z,15.05
2018-06-09T17:30:47.342Z,13.95
2018-06-09T17:33:16.280Z,13.88
2018-06-09T17:35:44.840Z,16.95
2018-06-09T17:38:19.072Z,15.75
2018-06-09T17:40:48.229Z,16.23
2018-06-09T17:43:16.971Z,15.88
2018-06-09T17:45:47.253Z,17.02
2018-06-09T17:48:16.187Z,15.75
2018-06-09T17:50:45.164Z,17.48
2018-06-09T17:56:09.918Z,16.85
2018-06-09T17:58:38.886Z,16.37
2018-06-09T18:01:07.440Z,16.52
2018-06-09T18:03:36.066Z,16.05
2018-06-09T18:06:04.664Z,17.35
2018-06-09T18:08:33.494Z,16.40
2018-06-09T18:11:03.007Z,17.32
2018-06-09T18:13:31.786Z,16.97
2018-06-09T18:16:01.064Z,16.60
2018-06-09T18:18:30.433Z,17.10
2018-06-09T18:21:00.693Z,16.80
2018-06-09T18:23:29.932Z,15.83
2018-06-09T18:25:58.909Z,16.85
2018-06-09T18:28:29.046Z,16.55
2018-06-09T18:30:57.755Z,16.75
2018-06-09T18:33:26.037Z,17.62
2018-06-09T18:35:55.316Z,17.85
2018-06-09T18:38:23.876Z,18.42
2018-06-09T18:40:52.979Z,17.87
2018-06-09T18:43:21.516Z,17.65
2018-06-09T18:45:49.989Z,18.17
2018-06-09T18:48:18.568Z,16.75
2018-06-09T18:50:47.147Z,17.77
2018-06-09T18:53:15.728Z,17.82
2018-06-09T18:55:44.447Z,19.70
2018-06-09T18:58:13.434Z,19.20
2018-06-09T19:00:41.956Z,18.48
2018-06-09T19:03:10.666Z,18.80
2018-06-09T19:05:40.416Z,18.55
2018-06-09T19:08:08.925Z,18.57
2018-06-09T19:10:37.613Z,19.12
2018-06-09T19:13:06.151Z,18.37
2018-06-09T19:18:30.997Z,14.03
2018-06-09T19:20:59.726Z,14.58
2018-06-09T19:23:28.415Z,12.20
2018-06-09T19:25:56.953Z,11.95
2018-06-09T19:28:25.538Z,11.33
2018-06-09T19:30:54.550Z,12.23
2018-06-09T19:33:23.083Z,11.12
2018-06-09T19:35:51.594Z,10.13
2018-06-09T19:38:20.102Z,16.07
2018-06-09T19:40:48.641Z,9.25
2018-06-09T19:43:17.122Z,8.88
2018-06-09T19:45:45.656Z,8.18
2018-06-09T19:48:14.153Z,8.88
2018-06-09T19:50:42.616Z,8.55
2018-06-09T19:53:11.131Z,8.00
2018-06-09T19:55:39.968Z,8.38
2018-06-09T19:58:08.485Z,7.37
2018-06-09T20:00:37.096Z,6.33
2018-06-09T20:03:05.666Z,6.60
2018-06-09T20:05:34.175Z,6.28
2018-06-09T20:08:02.896Z,6.67
2018-06-09T20:10:31.636Z,6.75
2018-06-09T20:13:00.231Z,6.95
2018-06-09T20:15:40.210Z,7.87
2018-06-09T20:18:11.424Z,8.55
2018-06-09T20:20:43.429Z,8.80
2018-06-09T20:23:13.995Z,9.00
2018-06-09T20:25:42.660Z,8.68
2018-06-09T20:28:13.704Z,8.15
2018-06-09T20:30:42.394Z,7.97
2018-06-09T20:33:12.051Z,7.95
2018-06-09T20:35:41.764Z,8.45
2018-06-09T20:38:11.782Z,10.88
2018-06-09T20:40:43.167Z,10.10
2018-06-09T20:43:11.892Z,9.43
2018-06-09T20:45:41.673Z,9.20
2018-06-09T20:48:11.917Z,10.65
2018-06-09T20:50:41.369Z,10.55
2018-06-09T20:53:11.640Z,10.25
2018-06-09T20:55:43.403Z,9.98
2018-06-09T20:58:14.033Z,8.65
2018-06-09T21:00:45.643Z,8.85
2018-06-09T21:03:15.486Z,9.10
2018-06-09T21:05:46.804Z,9.28
2018-06-09T21:08:15.788Z,7.78
2018-06-09T21:10:45.910Z,8.28
2018-06-09T21:13:16.154Z,9.15
2018-06-09T21:15:51.698Z,9.00
2018-06-09T21:18:24.539Z,7.97
2018-06-09T21:20:54.705Z,7.75
2018-06-09T21:23:25.271Z,8.33
2018-06-09T21:25:55.135Z,9.65
2018-06-09T21:28:26.374Z,9.05
2018-06-09T21:32:05.469Z,8.80
2018-06-09T21:34:52.143Z,8.70
2018-06-09T21:37:27.733Z,8.48
2018-06-09T21:40:06.501Z,13.83
2018-06-09T21:42:44.630Z,10.35
2018-06-09T21:45:18.543Z,11.40
2018-06-09T21:47:48.392Z,10.32
2018-06-09T21:50:19.385Z,8.45
2018-06-09T21:52:48.803Z,8.63
2018-06-09T21:55:18.373Z,8.93
2018-06-09T21:57:47.311Z,9.48
2018-06-09T22:00:17.298Z,8.85
2018-06-09T22:02:46.060Z,8.65
2018-06-09T22:05:17.597Z,8.65
2018-06-09T22:07:48.670Z,8.45
2018-06-09T22:10:18.343Z,9.65
2018-06-09T22:12:47.759Z,9.23
2018-06-09T22:15:17.326Z,10.72
2018-06-09T22:17:46.053Z,8.70
2018-06-09T22:20:15.592Z,10.63
2018-06-09T22:22:45.093Z,11.20
2018-06-09T22:25:19.626Z,10.68
2018-06-09T22:27:49.654Z,9.83
2018-06-09T22:30:19.061Z,10.58
2018-06-09T22:32:47.638Z,9.10
2018-06-09T22:35:16.971Z,8.53
2018-06-09T22:37:46.494Z,7.97
2018-06-09T22:40:19.069Z,7.53
2018-06-09T22:42:50.592Z,7.53
2018-06-09T22:45:21.925Z,7.95
2018-06-09T22:47:51.385Z,8.70
2018-06-09T22:50:21.088Z,7.87
2018-06-09T22:52:51.029Z,9.05
2018-06-09T22:55:19.663Z,8.95
2018-06-09T22:57:48.279Z,9.60
2018-06-09T23:00:27.100Z,10.08
2018-06-09T23:02:55.903Z,10.28
2018-06-09T23:05:26.796Z,9.18
2018-06-09T23:07:56.613Z,10.03
2018-06-09T23:10:26.243Z,10.20
2018-06-09T23:13:10.771Z,11.25
2018-06-09T23:22:35.423Z,11.30
2018-06-09T23:25:08.894Z,10.53
2018-06-09T23:27:40.389Z,10.43
2018-06-09T23:30:28.700Z,10.58
2018-06-09T23:32:59.559Z,10.23
2018-06-09T23:35:28.804Z,11.95
2018-06-09T23:38:03.054Z,10.88
2018-06-09T23:40:33.391Z,11.35
2018-06-09T23:43:10.616Z,11.08
2018-06-09T23:45:41.611Z,11.03
2018-06-09T23:48:13.203Z,11.78
2018-06-09T23:50:44.821Z,12.20
2018-06-09T23:53:14.114Z,11.90
2018-06-09T23:55:43.866Z,12.58
2018-06-09T23:58:15.025Z,13.62
